createdAt,value
2023-05-19T00:01:25.626Z,6.82
2023-05-19T00:04:13.788Z,6.80
2023-05-19T00:07:00.589Z,6.50
2023-05-19T00:09:46.180Z,6.38
2023-05-19T00:12:32.251Z,6.30
2023-05-19T00:15:17.843Z,6.78
2023-05-19T00:18:03.199Z,7.15
2023-05-19T00:20:49.024Z,6.88
2023-05-19T00:23:37.081Z,6.72
2023-05-19T00:26:23.292Z,6.65
2023-05-19T00:29:21.085Z,7.15
2023-05-19T00:32:07.018Z,7.22
2023-05-19T00:34:52.870Z,7.78
2023-05-19T00:37:41.654Z,7.63
2023-05-19T00:40:29.082Z,7.75
2023-05-19T00:43:14.533Z,7.43
2023-05-19T00:46:00.232Z,8.02
2023-05-19T00:48:46.306Z,7.30
2023-05-19T00:51:32.468Z,7.15
2023-05-19T00:54:18.417Z,7.15
2023-05-19T00:57:04.335Z,8.35
2023-05-19T00:59:59.257Z,8.75
2023-05-19T01:02:45.181Z,8.10
2023-05-19T01:05:31.245Z,7.95
2023-05-19T01:08:17.134Z,8.00
2023-05-19T01:11:04.281Z,7.55
2023-05-19T01:13:49.977Z,8.20
2023-05-19T01:16:40.507Z,8.13
2023-05-19T01:19:50.807Z,6.90
2023-05-19T01:23:05.253Z,7.45
2023-05-19T01:26:04.318Z,7.97
2023-05-19T01:28:56.053Z,7.38
2023-05-19T01:31:42.888Z,7.50
2023-05-19T01:34:30.961Z,7.38
2023-05-19T01:37:17.715Z,7.80
2023-05-19T01:40:07.342Z,6.85
2023-05-19T01:42:58.480Z,7.68
2023-05-19T01:45:45.178Z,7.75
2023-05-19T01:48:31.187Z,7.80
2023-05-19T01:51:19.665Z,8.02
2023-05-19T01:54:05.091Z,7.80
2023-05-19T01:57:13.758Z,8.50
2023-05-19T02:00:17.459Z,7.80
2023-05-19T02:03:09.877Z,7.07
2023-05-19T02:06:09.114Z,6.43
2023-05-19T02:09:16.989Z,7.85
2023-05-19T02:12:23.140Z,8.07
2023-05-19T02:15:16.588Z,7.95
2023-05-19T02:18:04.711Z,7.85
2023-05-19T02:21:00.479Z,8.20
2023-05-19T02:23:46.753Z,8.70
2023-05-19T02:26:32.353Z,9.00
2023-05-19T02:29:17.909Z,8.85
2023-05-19T02:32:03.584Z,8.13
2023-05-19T02:34:49.846Z,9.43
2023-05-19T02:37:36.265Z,9.32
2023-05-19T02:40:22.327Z,9.73
2023-05-19T02:43:08.732Z,9.35
2023-05-19T02:45:53.986Z,10.48
2023-05-19T02:48:39.539Z,9.30
2023-05-19T02:51:25.152Z,9.50
2023-05-19T02:54:13.227Z,9.50
2023-05-19T02:56:59.033Z,8.77
2023-05-19T02:59:44.572Z,9.40
2023-05-19T03:02:30.919Z,10.23
2023-05-19T03:05:16.495Z,9.90
2023-05-19T03:08:01.870Z,10.23
2023-05-19T03:10:48.070Z,10.63
2023-05-19T03:13:33.898Z,10.35
2023-05-19T03:16:19.690Z,10.38
2023-05-19T03:19:04.993Z,9.98
2023-05-19T03:21:50.845Z,10.75
2023-05-19T03:24:36.360Z,11.20
2023-05-19T03:27:22.012Z,10.85
2023-05-19T03:30:09.047Z,10.07
2023-05-19T03:33:05.353Z,11.23
2023-05-19T03:35:53.029Z,11.48
2023-05-19T03:38:38.844Z,11.82
2023-05-19T03:41:24.443Z,10.60
2023-05-19T03:44:10.634Z,11.27
2023-05-19T03:46:56.013Z,12.27
2023-05-19T03:50:02.299Z,12.07
2023-05-19T03:53:10.604Z,12.20
2023-05-19T03:56:00.621Z,11.40
2023-05-19T03:58:47.249Z,12.35
2023-05-19T04:01:33.955Z,11.98
2023-05-19T04:04:19.280Z,12.35
2023-05-19T04:07:04.941Z,12.65
2023-05-19T04:09:56.565Z,12.68
2023-05-19T04:12:41.739Z,12.82
2023-05-19T04:15:27.506Z,11.80
2023-05-19T04:18:14.063Z,13.60
2023-05-19T04:20:59.660Z,12.73
2023-05-19T04:23:44.806Z,12.85
2023-05-19T04:26:33.662Z,13.32
2023-05-19T04:29:23.727Z,13.65
2023-05-19T04:32:10.845Z,12.32
2023-05-19T04:34:58.893Z,13.15
2023-05-19T04:37:46.142Z,13.85
2023-05-19T04:40:33.654Z,11.77
2023-05-19T04:43:19.465Z,13.68
2023-05-19T04:46:06.396Z,13.02
2023-05-19T04:48:53.321Z,12.52
2023-05-19T04:51:41.422Z,11.80
2023-05-19T04:54:27.732Z,12.20
2023-05-19T04:57:14.422Z,11.63
2023-05-19T05:00:05.228Z,12.95
2023-05-19T05:02:57.651Z,11.55
2023-05-19T05:05:44.703Z,11.43
2023-05-19T05:08:30.455Z,10.75
2023-05-19T05:11:16.176Z,11.57
2023-05-19T05:14:01.976Z,11.23
2023-05-19T05:16:49.667Z,11.23
2023-05-19T05:19:40.898Z,10.70
2023-05-19T05:22:26.448Z,11.27
2023-05-19T05:25:13.323Z,11.27
2023-05-19T05:28:00.012Z,10.23
2023-05-19T05:30:46.629Z,10.98
2023-05-19T05:33:33.513Z,11.23
2023-05-19T05:36:21.806Z,10.65
2023-05-19T05:39:10.556Z,10.80
2023-05-19T05:41:58.435Z,10.98
2023-05-19T05:44:44.183Z,11.52
2023-05-19T05:47:29.576Z,11.57
2023-05-19T05:50:15.526Z,11.55
2023-05-19T05:53:06.834Z,10.82
2023-05-19T05:55:55.147Z,11.20
2023-05-19T05:58:45.398Z,11.63
2023-05-19T06:01:31.143Z,11.05
2023-05-19T06:04:17.524Z,10.90
2023-05-19T06:07:02.951Z,11.30
2023-05-19T06:09:52.775Z,10.75
2023-05-19T06:12:43.265Z,10.88
2023-05-19T06:15:29.975Z,11.13
2023-05-19T06:18:23.649Z,11.48
2023-05-19T06:21:14.026Z,10.70
2023-05-19T06:24:00.753Z,9.70
2023-05-19T06:26:46.398Z,9.90
2023-05-19T06:29:32.021Z,10.85
2023-05-19T06:32:21.353Z,10.07
2023-05-19T06:35:07.448Z,10.35
2023-05-19T06:37:53.526Z,9.35
2023-05-19T06:40:43.200Z,9.98
2023-05-19T06:43:29.120Z,10.02
2023-05-19T06:46:17.931Z,9.98
2023-05-19T06:49:03.902Z,10.65
2023-05-19T06:51:53.607Z,9.32
2023-05-19T06:54:39.723Z,8.48
2023-05-19T06:57:25.786Z,9.20
2023-05-19T07:00:13.432Z,9.23
2023-05-19T07:03:02.381Z,8.07
2023-05-19T07:05:50.159Z,8.20
2023-05-19T07:08:37.428Z,7.55
2023-05-19T07:11:26.420Z,7.80
2023-05-19T07:14:11.975Z,7.65
2023-05-19T07:16:57.331Z,7.85
2023-05-19T07:19:43.283Z,8.20
2023-05-19T07:22:28.844Z,7.53
2023-05-19T07:25:14.191Z,7.72
2023-05-19T07:27:59.803Z,7.43
2023-05-19T07:30:45.369Z,7.88
2023-05-19T07:33:31.120Z,7.50
2023-05-19T07:36:19.519Z,7.00
2023-05-19T07:39:05.251Z,7.85
2023-05-19T07:41:54.347Z,7.03
2023-05-19T07:44:39.624Z,6.97
2023-05-19T07:47:26.281Z,6.97
2023-05-19T07:50:12.073Z,6.13
2023-05-19T07:52:57.507Z,5.75
2023-05-19T07:55:43.139Z,5.53
2023-05-19T07:58:28.647Z,6.07
2023-05-19T08:01:14.333Z,5.65
2023-05-19T08:04:00.297Z,5.70
2023-05-19T08:06:46.037Z,5.75
2023-05-19T08:09:31.795Z,4.85
2023-05-19T08:12:17.321Z,5.40
2023-05-19T08:15:02.575Z,5.45
2023-05-19T08:17:48.254Z,5.97
2023-05-19T08:20:34.300Z,4.90
2023-05-19T08:23:20.483Z,5.20
2023-05-19T08:26:06.166Z,5.30
2023-05-19T08:28:52.025Z,5.18
2023-05-19T08:31:37.599Z,4.50
2023-05-19T08:34:23.009Z,4.82
2023-05-19T08:37:08.677Z,4.03
2023-05-19T08:39:54.376Z,4.43
2023-05-19T08:42:39.741Z,4.88
2023-05-19T08:45:25.451Z,4.05
2023-05-19T08:48:11.861Z,3.70
2023-05-19T08:51:09.205Z,4.35
2023-05-19T08:54:03.590Z,3.67
2023-05-19T08:56:49.415Z,4.00
2023-05-19T08:59:35.323Z,3.88
2023-05-19T09:02:22.607Z,3.63
2023-05-19T09:05:09.133Z,3.97
2023-05-19T09:07:55.235Z,3.92
2023-05-19T09:10:41.299Z,3.63
2023-05-19T09:13:26.979Z,3.25
2023-05-19T09:16:13.229Z,3.42
2023-05-19T09:18:59.095Z,3.42
2023-05-19T09:21:45.760Z,3.25
2023-05-19T09:24:32.120Z,3.42
2023-05-19T09:27:25.225Z,3.60
2023-05-19T09:30:10.622Z,2.83
2023-05-19T09:32:56.321Z,2.88
2023-05-19T09:35:47.204Z,3.60
2023-05-19T09:38:32.711Z,2.83
2023-05-19T09:41:18.117Z,2.95
2023-05-19T09:44:03.656Z,3.38
2023-05-19T09:46:50.707Z,2.75
2023-05-19T09:49:36.460Z,2.90
2023-05-19T09:52:22.216Z,3.58
2023-05-19T09:55:11.051Z,2.92
2023-05-19T09:57:56.925Z,3.03
2023-05-19T10:00:43.011Z,2.40
2023-05-19T10:03:28.876Z,3.20
2023-05-19T10:06:17.573Z,2.53
2023-05-19T10:09:04.051Z,2.70
2023-05-19T10:11:51.465Z,2.63
2023-05-19T10:14:37.783Z,3.13
2023-05-19T10:17:26.198Z,3.00
2023-05-19T10:20:14.153Z,3.05
2023-05-19T10:22:59.575Z,3.08
2023-05-19T10:25:49.041Z,2.78
2023-05-19T10:28:41.302Z,3.25
2023-05-19T10:31:27.582Z,3.00
2023-05-19T10:34:50.249Z,2.65
2023-05-19T10:37:55.482Z,3.40
2023-05-19T10:41:06.831Z,2.92
2023-05-19T10:44:04.373Z,2.83
2023-05-19T10:46:49.990Z,3.35
2023-05-19T10:49:36.685Z,3.00
2023-05-19T10:52:26.121Z,2.78
2023-05-19T10:55:17.460Z,3.33
2023-05-19T10:58:03.119Z,2.72
2023-05-19T11:01:01.124Z,3.15
2023-05-19T11:03:54.948Z,3.28
2023-05-19T11:06:52.153Z,2.72
2023-05-19T11:09:41.235Z,2.78
2023-05-19T11:12:27.140Z,2.92
2023-05-19T11:15:14.635Z,2.45
2023-05-19T11:18:03.379Z,2.40
2023-05-19T11:21:00.833Z,2.50
2023-05-19T11:23:46.342Z,2.65
2023-05-19T11:26:48.249Z,2.92
2023-05-19T11:29:34.860Z,2.90
2023-05-19T11:32:21.890Z,2.70
2023-05-19T11:35:08.075Z,2.63
2023-05-19T11:37:54.854Z,2.83
2023-05-19T11:40:42.649Z,2.92
2023-05-19T11:43:27.932Z,2.75
2023-05-19T11:46:13.934Z,3.33
2023-05-19T11:48:59.589Z,3.08
2023-05-19T11:51:47.911Z,2.50
2023-05-19T11:54:39.151Z,2.63
2023-05-19T11:57:27.469Z,2.65
2023-05-19T12:00:14.621Z,2.90
2023-05-19T12:03:00.237Z,2.25
2023-05-19T12:05:48.198Z,3.15
2023-05-19T12:08:35.478Z,2.65
2023-05-19T12:11:20.881Z,3.70
2023-05-19T12:14:13.048Z,2.90
2023-05-19T12:16:58.234Z,2.63
2023-05-19T12:19:45.046Z,3.30
2023-05-19T12:22:30.637Z,3.38
2023-05-19T12:25:17.100Z,2.85
2023-05-19T12:28:05.797Z,2.47
2023-05-19T12:30:52.618Z,3.08
2023-05-19T12:33:38.154Z,3.00
2023-05-19T12:36:25.278Z,3.30
2023-05-19T12:39:11.632Z,3.15
2023-05-19T12:42:04.529Z,3.50
2023-05-19T12:44:52.749Z,2.97
2023-05-19T12:47:39.096Z,3.05
2023-05-19T12:50:31.488Z,2.47
2023-05-19T12:53:17.278Z,3.55
2023-05-19T12:56:18.406Z,3.15
2023-05-19T12:59:04.272Z,2.65
2023-05-19T13:01:57.333Z,2.45
2023-05-19T13:04:42.861Z,2.67
2023-05-19T13:07:28.448Z,3.17
2023-05-19T13:10:16.997Z,2.60
2023-05-19T13:13:03.472Z,2.75
2023-05-19T13:15:51.969Z,2.65
2023-05-19T13:18:38.316Z,2.85
2023-05-19T13:21:23.540Z,2.53
2023-05-19T13:24:09.365Z,2.63
2023-05-19T13:26:55.993Z,2.80
2023-05-19T13:29:44.504Z,2.65
2023-05-19T13:32:29.929Z,3.25
2023-05-19T13:35:15.446Z,2.63
2023-05-19T13:38:01.052Z,2.50
2023-05-19T13:40:46.713Z,2.83
2023-05-19T13:43:32.223Z,2.55
2023-05-19T13:46:19.247Z,3.28
2023-05-19T13:49:07.157Z,3.17
2023-05-19T13:51:56.801Z,3.00
2023-05-19T13:54:42.103Z,3.00
2023-05-19T13:57:27.499Z,2.78
2023-05-19T14:00:13.874Z,2.75
2023-05-19T14:03:00.288Z,3.00
2023-05-19T14:05:48.530Z,2.47
2023-05-19T14:08:34.313Z,2.75
2023-05-19T14:11:23.680Z,3.13
2023-05-19T14:14:11.332Z,2.83
2023-05-19T14:16:57.253Z,2.60
2023-05-19T14:19:42.862Z,2.92
2023-05-19T14:22:28.345Z,2.95
2023-05-19T14:25:13.807Z,2.60
2023-05-19T14:27:59.932Z,2.40
2023-05-19T14:30:48.368Z,2.20
2023-05-19T14:33:35.706Z,2.88
2023-05-19T14:36:21.467Z,2.30
2023-05-19T14:39:07.229Z,2.60
2023-05-19T14:41:53.151Z,2.35
2023-05-19T14:44:38.523Z,2.45
2023-05-19T14:47:27.391Z,2.72
2023-05-19T14:50:18.809Z,2.40
2023-05-19T14:53:04.709Z,2.47
2023-05-19T14:55:50.302Z,2.47
2023-05-19T14:58:35.864Z,2.88
2023-05-19T15:01:21.446Z,2.67
2023-05-19T15:04:08.039Z,2.88
2023-05-19T15:07:05.823Z,2.85
2023-05-19T15:09:55.572Z,3.22
2023-05-19T15:12:41.184Z,2.08
2023-05-19T15:15:26.449Z,2.90
2023-05-19T15:18:18.469Z,2.70
2023-05-19T15:21:04.517Z,2.38
2023-05-19T15:23:49.995Z,2.70
2023-05-19T15:26:35.008Z,2.72
2023-05-19T15:29:20.417Z,2.78
2023-05-19T15:32:06.352Z,3.00
2023-05-19T15:34:51.994Z,2.53
2023-05-19T15:37:37.432Z,2.38
2023-05-19T15:40:25.949Z,2.70
2023-05-19T15:43:11.331Z,2.92
2023-05-19T15:45:56.773Z,2.85
2023-05-19T15:48:42.424Z,2.67
2023-05-19T15:51:28.084Z,2.83
2023-05-19T15:54:13.554Z,2.35
2023-05-19T15:56:59.168Z,2.30
2023-05-19T15:59:44.504Z,3.65
2023-05-19T16:02:30.195Z,3.67
2023-05-19T16:05:16.740Z,2.70
2023-05-19T16:08:02.176Z,2.85
2023-05-19T16:10:47.802Z,3.42
2023-05-19T16:13:33.867Z,2.80
2023-05-19T16:16:19.807Z,2.30
2023-05-19T16:19:07.716Z,2.33
2023-05-19T16:21:53.761Z,2.38
2023-05-19T16:24:39.070Z,2.55
2023-05-19T16:27:25.018Z,2.47
2023-05-19T16:30:10.564Z,3.30
2023-05-19T16:32:56.029Z,2.33
2023-05-19T16:35:41.355Z,2.38
2023-05-19T16:38:26.962Z,2.85
2023-05-19T16:41:12.584Z,2.90
2023-05-19T16:43:58.087Z,2.70
2023-05-19T16:46:43.366Z,2.53
2023-05-19T16:49:33.497Z,2.58
2023-05-19T16:52:18.906Z,2.45
2023-05-19T16:55:04.436Z,2.65
2023-05-19T16:57:49.548Z,2.65
2023-05-19T17:00:35.292Z,2.65
2023-05-19T17:03:21.316Z,2.42
2023-05-19T17:06:06.945Z,2.38
2023-05-19T17:08:52.370Z,2.15
2023-05-19T17:11:38.004Z,2.08
2023-05-19T17:14:23.503Z,2.40
2023-05-19T17:17:08.815Z,2.47
2023-05-19T17:19:54.178Z,2.75
2023-05-19T17:22:42.587Z,2.58
2023-05-19T17:25:28.404Z,2.25
2023-05-19T17:28:13.665Z,2.28
2023-05-19T17:30:59.193Z,3.28
2023-05-19T17:33:44.434Z,3.00
2023-05-19T17:36:29.818Z,2.60
2023-05-19T17:39:16.201Z,2.85
2023-05-19T17:42:02.622Z,2.58
2023-05-19T17:44:50.880Z,2.70
2023-05-19T17:47:36.464Z,2.13
2023-05-19T17:50:21.654Z,2.55
2023-05-19T17:53:07.465Z,2.85
2023-05-19T17:55:57.733Z,3.08
2023-05-19T17:58:44.171Z,2.92
2023-05-19T18:01:31.573Z,2.95
2023-05-19T18:04:24.429Z,3.10
2023-05-19T18:07:11.809Z,2.80
2023-05-19T18:10:00.431Z,2.63
2023-05-19T18:12:45.920Z,2.53
2023-05-19T18:15:31.562Z,2.70
2023-05-19T18:18:16.974Z,2.78
2023-05-19T18:21:02.414Z,3.08
2023-05-19T18:23:48.146Z,3.03
2023-05-19T18:26:33.869Z,3.08
2023-05-19T18:29:22.375Z,2.90
2023-05-19T18:32:08.279Z,2.80
2023-05-19T18:34:54.340Z,3.63
2023-05-19T18:37:39.572Z,3.58
2023-05-19T18:40:25.240Z,4.35
2023-05-19T18:43:14.450Z,4.90
2023-05-19T18:46:02.893Z,4.07
2023-05-19T18:48:51.287Z,4.03
2023-05-19T18:51:36.837Z,3.83
2023-05-19T18:54:22.401Z,4.13
2023-05-19T18:57:08.159Z,4.32
2023-05-19T18:59:53.740Z,4.10
2023-05-19T19:02:41.055Z,4.18
2023-05-19T19:05:26.552Z,5.55
2023-05-19T19:08:12.184Z,5.20
2023-05-19T19:11:01.028Z,21.80
2023-05-19T19:13:47.416Z,7.05
2023-05-19T19:16:33.273Z,5.03
2023-05-19T19:19:18.964Z,4.97
2023-05-19T19:22:07.320Z,5.32
2023-05-19T19:24:52.792Z,4.85
2023-05-19T19:27:38.732Z,5.07
2023-05-19T19:30:25.203Z,5.03
2023-05-19T19:33:11.254Z,6.20
2023-05-19T19:35:56.581Z,6.20
2023-05-19T19:38:42.135Z,6.53
2023-05-19T19:41:29.825Z,7.40
2023-05-19T19:44:16.550Z,6.13
2023-05-19T19:47:06.029Z,5.60
2023-05-19T19:49:51.827Z,6.47
2023-05-19T19:52:37.770Z,5.68
2023-05-19T19:55:23.105Z,6.20
2023-05-19T19:58:08.799Z,5.97
2023-05-19T20:01:02.948Z,6.60
2023-05-19T20:03:49.030Z,5.90
2023-05-19T20:06:34.617Z,6.60
2023-05-19T20:09:20.204Z,5.13
2023-05-19T20:12:05.897Z,6.35
2023-05-19T20:14:53.870Z,5.25
2023-05-19T20:17:39.696Z,4.97
2023-05-19T20:20:25.024Z,5.80
2023-05-19T20:23:10.336Z,5.30
2023-05-19T20:26:10.948Z,4.78
2023-05-19T20:28:59.027Z,5.40
2023-05-19T20:31:47.018Z,5.55
2023-05-19T20:34:32.678Z,5.53
2023-05-19T20:37:17.853Z,5.60
2023-05-19T20:40:03.723Z,5.28
2023-05-19T20:42:49.328Z,5.70
2023-05-19T20:45:35.019Z,5.90
2023-05-19T20:48:21.013Z,5.28
2023-05-19T20:51:06.908Z,5.22
2023-05-19T20:53:53.970Z,4.65
2023-05-19T20:56:39.715Z,4.97
2023-05-19T20:59:24.907Z,5.25
2023-05-19T21:02:11.823Z,5.47
2023-05-19T21:04:57.064Z,5.55
2023-05-19T21:07:42.636Z,6.40
2023-05-19T21:10:27.914Z,5.57
2023-05-19T21:13:13.704Z,5.68
2023-05-19T21:15:59.497Z,5.82
2023-05-19T21:18:45.164Z,5.82
2023-05-19T21:21:31.777Z,5.80
2023-05-19T21:24:17.624Z,6.25
2023-05-19T21:27:03.255Z,5.90
2023-05-19T21:29:53.247Z,5.55
2023-05-19T21:32:38.773Z,5.90
2023-05-19T21:35:26.880Z,5.53
2023-05-19T21:38:23.309Z,5.53
2023-05-19T21:41:09.393Z,5.47
2023-05-19T21:43:54.698Z,5.30
2023-05-19T21:46:40.431Z,5.47
2023-05-19T21:49:25.699Z,6.03
2023-05-19T21:52:11.137Z,5.65
2023-05-19T21:54:57.006Z,4.60
2023-05-19T21:57:42.923Z,4.80
2023-05-19T22:00:28.849Z,5.15
2023-05-19T22:03:14.280Z,5.22
2023-05-19T22:05:59.783Z,4.90
2023-05-19T22:08:45.233Z,4.90
2023-05-19T22:11:30.767Z,4.65
2023-05-19T22:14:16.375Z,4.88
2023-05-19T22:17:01.607Z,5.05
2023-05-19T22:19:48.622Z,5.20
2023-05-19T22:22:34.595Z,4.78
2023-05-19T22:25:23.473Z,4.85
2023-05-19T22:28:09.320Z,4.97
2023-05-19T22:30:54.842Z,5.00
2023-05-19T22:33:40.293Z,4.97
2023-05-19T22:36:25.874Z,4.45
2023-05-19T22:39:17.315Z,5.07
2023-05-19T22:42:02.683Z,4.43
2023-05-19T22:44:48.140Z,4.38
2023-05-19T22:47:33.587Z,5.30
2023-05-19T22:50:20.161Z,4.80
2023-05-19T22:53:05.853Z,4.22
2023-05-19T22:55:51.366Z,5.38
2023-05-19T22:58:36.908Z,4.85
2023-05-19T23:01:25.380Z,4.85
2023-05-19T23:04:11.851Z,4.13
2023-05-19T23:06:57.603Z,4.78
2023-05-19T23:09:43.503Z,4.50
2023-05-19T23:12:29.524Z,4.60
2023-05-19T23:15:17.078Z,5.55
2023-05-19T23:18:06.988Z,4.35
2023-05-19T23:20:52.316Z,4.85
2023-05-19T23:23:37.861Z,5.55
2023-05-19T23:26:23.547Z,4.85
2023-05-19T23:29:14.932Z,4.60
2023-05-19T23:32:00.254Z,4.57
2023-05-19T23:34:48.156Z,4.32
2023-05-19T23:37:33.481Z,5.45
2023-05-19T23:40:19.347Z,4.07
2023-05-19T23:43:05.084Z,4.78
2023-05-19T23:45:50.649Z,4.95
2023-05-19T23:48:36.689Z,4.40
2023-05-19T23:51:22.437Z,4.97
2023-05-19T23:54:07.947Z,4.72
2023-05-19T23:56:58.769Z,5.28
2023-05-19T23:59:44.492Z,5.13
